AUA24 EDSB-LOWI
Flight info
| Callsign | AUA24 |
|---|---|
| Flight time | 0h 50m |
| Altitude | 21000 |
| Route | GAGSI1Y GAGSI Y712 LBU L173 RIXED Y161 MANAL M736 TULSI TULSI3A |
| Aircraft | DH8D/M-SDE2E3FGRY/H |
Departure
| Time | 2026-05-08 08:08 |
|---|---|
| Airport | Karlsruhe Baden-Baden Airport (EDSB) |
Arrival
| Time | 2026-05-08 08:58 |
|---|---|
| Airport | Innsbruck Airport (LOWI) |
| Time | Latitude | Longitude | Altitude | Speed | Heading |
|---|---|---|---|---|---|
| 2026-05-08 07:47 | 48.78072 | 8.08813 | 406 ft | 0 kts | 160° |
| 2026-05-08 08:03 | 48.78071 | 8.08814 | 406 ft | 0 kts | 160° |
| 2026-05-08 08:03 | 48.78067 | 8.08815 | 406 ft | 0 kts | 173° |
| 2026-05-08 08:03 | 48.78063 | 8.08782 | 406 ft | 7 kts | 301° |
| 2026-05-08 08:03 | 48.78102 | 8.08699 | 405 ft | 9 kts | 306° |
| 2026-05-08 08:04 | 48.78136 | 8.08617 | 404 ft | 10 kts | 300° |
| 2026-05-08 08:04 | 48.78110 | 8.08498 | 404 ft | 17 kts | 206° |
| 2026-05-08 08:04 | 48.77988 | 8.08392 | 403 ft | 22 kts | 211° |
| 2026-05-08 08:04 | 48.77841 | 8.08252 | 402 ft | 27 kts | 211° |
| 2026-05-08 08:05 | 48.77670 | 8.08091 | 400 ft | 29 kts | 212° |
| 2026-05-08 08:05 | 48.77514 | 8.07949 | 400 ft | 23 kts | 210° |
| 2026-05-08 08:05 | 48.77384 | 8.07832 | 403 ft | 19 kts | 211° |
| 2026-05-08 08:05 | 48.77317 | 8.07760 | 403 ft | 3 kts | 225° |
| 2026-05-08 08:06 | 48.77305 | 8.07722 | 404 ft | 4 kts | 264° |
| 2026-05-08 08:06 | 48.77315 | 8.07676 | 404 ft | 4 kts | 294° |
| 2026-05-08 08:06 | 48.77328 | 8.07636 | 404 ft | 3 kts | 297° |
| 2026-05-08 08:06 | 48.77337 | 8.07612 | 405 ft | 2 kts | 301° |
| 2026-05-08 08:07 | 48.77357 | 8.07564 | 406 ft | 8 kts | 302° |
| 2026-05-08 08:07 | 48.77425 | 8.07575 | 406 ft | 14 kts | 25° |
| 2026-05-08 08:07 | 48.77639 | 8.07782 | 403 ft | 75 kts | 31° |
| 2026-05-08 08:07 | 48.78307 | 8.08395 | 404 ft | 144 kts | 31° |
| 2026-05-08 08:08 | 48.79237 | 8.09274 | 740 ft | 161 kts | 30° |
| 2026-05-08 08:08 | 48.80153 | 8.10306 | 1267 ft | 172 kts | 41° |
| 2026-05-08 08:08 | 48.81052 | 8.11487 | 1991 ft | 174 kts | 40° |
| 2026-05-08 08:08 | 48.82108 | 8.12610 | 2248 ft | 206 kts | 32° |
| 2026-05-08 08:09 | 48.83352 | 8.13649 | 3054 ft | 202 kts | 30° |
| 2026-05-08 08:09 | 48.84537 | 8.14659 | 3898 ft | 197 kts | 31° |
| 2026-05-08 08:09 | 48.85717 | 8.15699 | 4584 ft | 200 kts | 31° |
| 2026-05-08 08:09 | 48.86909 | 8.16782 | 5275 ft | 203 kts | 32° |
| 2026-05-08 08:10 | 48.88111 | 8.17899 | 5938 ft | 206 kts | 32° |
| 2026-05-08 08:10 | 48.89232 | 8.19252 | 6563 ft | 210 kts | 55° |
| 2026-05-08 08:10 | 48.89651 | 8.21355 | 7158 ft | 213 kts | 84° |
| 2026-05-08 08:10 | 48.89753 | 8.23581 | 7800 ft | 214 kts | 86° |
| 2026-05-08 08:11 | 48.89818 | 8.25849 | 8305 ft | 218 kts | 88° |
| 2026-05-08 08:11 | 48.89850 | 8.28166 | 8827 ft | 222 kts | 89° |
| 2026-05-08 08:11 | 48.89860 | 8.30537 | 9358 ft | 225 kts | 89° |
| 2026-05-08 08:11 | 48.89853 | 8.32919 | 9878 ft | 229 kts | 90° |
| 2026-05-08 08:12 | 48.89835 | 8.35339 | 10410 ft | 231 kts | 90° |
| 2026-05-08 08:12 | 48.89808 | 8.37758 | 10965 ft | 232 kts | 90° |
| 2026-05-08 08:12 | 48.89774 | 8.40225 | 11508 ft | 235 kts | 91° |
| 2026-05-08 08:12 | 48.89734 | 8.42705 | 12072 ft | 236 kts | 91° |
| 2026-05-08 08:13 | 48.89691 | 8.45175 | 12607 ft | 238 kts | 91° |
| 2026-05-08 08:13 | 48.89644 | 8.47686 | 13112 ft | 240 kts | 91° |
| 2026-05-08 08:13 | 48.89595 | 8.50213 | 13594 ft | 242 kts | 91° |
| 2026-05-08 08:13 | 48.89543 | 8.52762 | 14046 ft | 244 kts | 92° |
| 2026-05-08 08:14 | 48.89489 | 8.55354 | 14502 ft | 246 kts | 91° |
| 2026-05-08 08:14 | 48.89434 | 8.57937 | 14949 ft | 248 kts | 92° |
| 2026-05-08 08:14 | 48.89377 | 8.60582 | 15370 ft | 251 kts | 91° |
| 2026-05-08 08:14 | 48.89319 | 8.63205 | 15801 ft | 252 kts | 91° |
| 2026-05-08 08:15 | 48.89259 | 8.65888 | 16216 ft | 253 kts | 92° |
| 2026-05-08 08:15 | 48.89198 | 8.68556 | 16594 ft | 255 kts | 92° |
| 2026-05-08 08:15 | 48.89135 | 8.71304 | 16968 ft | 257 kts | 92° |
| 2026-05-08 08:15 | 48.89072 | 8.74005 | 17339 ft | 259 kts | 92° |
| 2026-05-08 08:16 | 48.89008 | 8.76736 | 17698 ft | 260 kts | 92° |
| 2026-05-08 08:16 | 48.88942 | 8.79494 | 18060 ft | 262 kts | 92° |
| 2026-05-08 08:16 | 48.88875 | 8.82248 | 18393 ft | 265 kts | 92° |
| 2026-05-08 08:16 | 48.88807 | 8.85037 | 18734 ft | 266 kts | 92° |
| 2026-05-08 08:17 | 48.88738 | 8.87843 | 19080 ft | 267 kts | 92° |
| 2026-05-08 08:17 | 48.88667 | 8.90675 | 19414 ft | 268 kts | 92° |
| 2026-05-08 08:17 | 48.88597 | 8.93481 | 19719 ft | 270 kts | 92° |
| 2026-05-08 08:17 | 48.88524 | 8.96341 | 20040 ft | 271 kts | 92° |
| 2026-05-08 08:18 | 48.88451 | 8.99186 | 20350 ft | 272 kts | 92° |
| 2026-05-08 08:18 | 48.88376 | 9.02053 | 20642 ft | 273 kts | 92° |
| 2026-05-08 08:18 | 48.88300 | 9.04958 | 20913 ft | 275 kts | 92° |
| 2026-05-08 08:18 | 48.88235 | 9.07866 | 21024 ft | 283 kts | 90° |
| 2026-05-08 08:19 | 48.88448 | 9.10889 | 21066 ft | 292 kts | 79° |
| 2026-05-08 08:19 | 48.88826 | 9.13969 | 21074 ft | 302 kts | 79° |
| 2026-05-08 08:19 | 48.89220 | 9.17147 | 21076 ft | 312 kts | 79° |
| 2026-05-08 08:19 | 48.89622 | 9.20411 | 21075 ft | 320 kts | 79° |
| 2026-05-08 08:20 | 48.90028 | 9.23744 | 21080 ft | 327 kts | 79° |
| 2026-05-08 08:20 | 48.90442 | 9.27167 | 21078 ft | 332 kts | 79° |
| 2026-05-08 08:20 | 48.90859 | 9.30637 | 21075 ft | 337 kts | 79° |
| 2026-05-08 08:20 | 48.91202 | 9.34180 | 21058 ft | 341 kts | 87° |
| 2026-05-08 08:21 | 48.91057 | 9.37782 | 21085 ft | 343 kts | 96° |
| 2026-05-08 08:21 | 48.90785 | 9.41385 | 21081 ft | 346 kts | 97° |
| 2026-05-08 08:21 | 48.90507 | 9.45011 | 21079 ft | 349 kts | 97° |
| 2026-05-08 08:21 | 48.90225 | 9.48705 | 21083 ft | 351 kts | 96° |
| 2026-05-08 08:22 | 48.89946 | 9.52376 | 21076 ft | 353 kts | 96° |
| 2026-05-08 08:22 | 48.89666 | 9.56069 | 21073 ft | 353 kts | 96° |
| 2026-05-08 08:22 | 48.89387 | 9.59759 | 21068 ft | 354 kts | 96° |
| 2026-05-08 08:22 | 48.89105 | 9.63465 | 21079 ft | 355 kts | 96° |
| 2026-05-08 08:23 | 48.88825 | 9.67153 | 21071 ft | 355 kts | 97° |
| 2026-05-08 08:23 | 48.88538 | 9.70925 | 21069 ft | 355 kts | 97° |
| 2026-05-08 08:23 | 48.88255 | 9.74637 | 21073 ft | 355 kts | 97° |
| 2026-05-08 08:23 | 48.87974 | 9.78305 | 21082 ft | 355 kts | 97° |
| 2026-05-08 08:24 | 48.87689 | 9.81998 | 21073 ft | 356 kts | 97° |
| 2026-05-08 08:24 | 48.87398 | 9.85757 | 21062 ft | 357 kts | 97° |
| 2026-05-08 08:24 | 48.87105 | 9.89529 | 21064 ft | 357 kts | 97° |
| 2026-05-08 08:24 | 48.86814 | 9.93266 | 21067 ft | 358 kts | 97° |
| 2026-05-08 08:25 | 48.86521 | 9.97008 | 21065 ft | 358 kts | 97° |
| 2026-05-08 08:25 | 48.86223 | 10.00797 | 21066 ft | 358 kts | 97° |
| 2026-05-08 08:25 | 48.85927 | 10.04544 | 21067 ft | 358 kts | 97° |
| 2026-05-08 08:25 | 48.85633 | 10.08259 | 21064 ft | 358 kts | 97° |
| 2026-05-08 08:26 | 48.85334 | 10.12014 | 21069 ft | 358 kts | 97° |
| 2026-05-08 08:26 | 48.85033 | 10.15785 | 21065 ft | 358 kts | 97° |
| 2026-05-08 08:26 | 48.84733 | 10.19538 | 21064 ft | 358 kts | 97° |
| 2026-05-08 08:26 | 48.84435 | 10.23237 | 21061 ft | 358 kts | 97° |
| 2026-05-08 08:27 | 48.84132 | 10.26990 | 21059 ft | 358 kts | 97° |
| 2026-05-08 08:27 | 48.83827 | 10.30757 | 21059 ft | 358 kts | 97° |
| 2026-05-08 08:27 | 48.83522 | 10.34508 | 21059 ft | 359 kts | 97° |
| 2026-05-08 08:27 | 48.83215 | 10.38233 | 21066 ft | 359 kts | 97° |
| 2026-05-08 08:28 | 48.82571 | 10.41825 | 21031 ft | 356 kts | 117° |
| 2026-05-08 08:28 | 48.81079 | 10.44802 | 21085 ft | 352 kts | 134° |
| 2026-05-08 08:28 | 48.79429 | 10.47479 | 21068 ft | 352 kts | 135° |
| 2026-05-08 08:28 | 48.77725 | 10.50206 | 21063 ft | 352 kts | 135° |
| 2026-05-08 08:29 | 48.76055 | 10.52871 | 21060 ft | 353 kts | 135° |
| 2026-05-08 08:29 | 48.74378 | 10.55546 | 21064 ft | 353 kts | 135° |
| 2026-05-08 08:29 | 48.72675 | 10.58260 | 21059 ft | 353 kts | 135° |
| 2026-05-08 08:29 | 48.70985 | 10.60954 | 21063 ft | 353 kts | 135° |
| 2026-05-08 08:30 | 48.69302 | 10.63632 | 21065 ft | 353 kts | 135° |
| 2026-05-08 08:30 | 48.67621 | 10.66307 | 21060 ft | 352 kts | 136° |
| 2026-05-08 08:30 | 48.64241 | 10.71675 | 21068 ft | 351 kts | 136° |
| 2026-05-08 08:31 | 48.62576 | 10.74315 | 21069 ft | 352 kts | 136° |
| 2026-05-08 08:31 | 48.60876 | 10.77009 | 21073 ft | 352 kts | 136° |
| 2026-05-08 08:31 | 48.59186 | 10.79686 | 21076 ft | 352 kts | 136° |
| 2026-05-08 08:31 | 48.57500 | 10.82363 | 21076 ft | 351 kts | 135° |
| 2026-05-08 08:32 | 48.55822 | 10.85051 | 21072 ft | 352 kts | 135° |
| 2026-05-08 08:32 | 48.54157 | 10.87719 | 21075 ft | 352 kts | 135° |
| 2026-05-08 08:32 | 48.52468 | 10.90420 | 21077 ft | 352 kts | 135° |
| 2026-05-08 08:32 | 48.50781 | 10.93115 | 21078 ft | 352 kts | 135° |
| 2026-05-08 08:33 | 48.49126 | 10.95754 | 21077 ft | 352 kts | 135° |
| 2026-05-08 08:33 | 48.47422 | 10.98439 | 21076 ft | 352 kts | 136° |
| 2026-05-08 08:33 | 48.45737 | 11.01066 | 21076 ft | 352 kts | 136° |
| 2026-05-08 08:33 | 48.44039 | 11.03711 | 21075 ft | 352 kts | 136° |
| 2026-05-08 08:34 | 48.42343 | 11.06349 | 21074 ft | 352 kts | 136° |
| 2026-05-08 08:34 | 48.40645 | 11.08990 | 21073 ft | 352 kts | 136° |
| 2026-05-08 08:34 | 48.38927 | 11.11661 | 21073 ft | 352 kts | 136° |
| 2026-05-08 08:34 | 48.37233 | 11.14291 | 21073 ft | 352 kts | 136° |
| 2026-05-08 08:35 | 48.35524 | 11.16941 | 21076 ft | 352 kts | 136° |
| 2026-05-08 08:35 | 48.33823 | 11.19577 | 21071 ft | 353 kts | 136° |
| 2026-05-08 08:35 | 48.32115 | 11.22222 | 21067 ft | 353 kts | 136° |
| 2026-05-08 08:35 | 48.30426 | 11.24835 | 21063 ft | 353 kts | 136° |
| 2026-05-08 08:36 | 48.28720 | 11.27470 | 21071 ft | 354 kts | 136° |
| 2026-05-08 08:36 | 48.26987 | 11.30146 | 21068 ft | 354 kts | 136° |
| 2026-05-08 08:36 | 48.25247 | 11.32767 | 21070 ft | 354 kts | 139° |
| 2026-05-08 08:36 | 48.23427 | 11.35233 | 21071 ft | 353 kts | 140° |
| 2026-05-08 08:37 | 48.21607 | 11.37657 | 21068 ft | 353 kts | 140° |
| 2026-05-08 08:37 | 48.19770 | 11.40107 | 21066 ft | 353 kts | 140° |
| 2026-05-08 08:37 | 48.17938 | 11.42555 | 21069 ft | 353 kts | 140° |
| 2026-05-08 08:37 | 48.16102 | 11.45013 | 21070 ft | 353 kts | 140° |
| 2026-05-08 08:38 | 48.14263 | 11.47433 | 21060 ft | 352 kts | 143° |
| 2026-05-08 08:38 | 48.12149 | 11.49061 | 21059 ft | 344 kts | 168° |
| 2026-05-08 08:38 | 48.09805 | 11.49065 | 21060 ft | 335 kts | 196° |
| 2026-05-08 08:38 | 48.07701 | 11.47707 | 21085 ft | 330 kts | 210° |
| 2026-05-08 08:39 | 48.05714 | 11.45979 | 21074 ft | 330 kts | 213° |
| 2026-05-08 08:39 | 48.03791 | 11.44142 | 21071 ft | 330 kts | 215° |
| 2026-05-08 08:39 | 48.01896 | 11.42216 | 21068 ft | 329 kts | 217° |
| 2026-05-08 08:39 | 48.00033 | 11.40241 | 21076 ft | 329 kts | 217° |
| 2026-05-08 08:40 | 47.98188 | 11.38222 | 21069 ft | 329 kts | 218° |
| 2026-05-08 08:40 | 47.96366 | 11.36184 | 21072 ft | 328 kts | 219° |
| 2026-05-08 08:40 | 47.94562 | 11.34132 | 21066 ft | 328 kts | 219° |
| 2026-05-08 08:40 | 47.92759 | 11.32057 | 21074 ft | 328 kts | 219° |
| 2026-05-08 08:41 | 47.90947 | 11.29955 | 21065 ft | 328 kts | 219° |
| 2026-05-08 08:41 | 47.89187 | 11.27902 | 21062 ft | 328 kts | 219° |
| 2026-05-08 08:41 | 47.87376 | 11.25779 | 21069 ft | 328 kts | 220° |
| 2026-05-08 08:41 | 47.85579 | 11.23668 | 21056 ft | 328 kts | 220° |
| 2026-05-08 08:42 | 47.83787 | 11.21559 | 21081 ft | 328 kts | 220° |
| 2026-05-08 08:42 | 47.82003 | 11.19455 | 21066 ft | 328 kts | 220° |
| 2026-05-08 08:42 | 47.80233 | 11.17368 | 21062 ft | 328 kts | 220° |
| 2026-05-08 08:42 | 47.78435 | 11.15248 | 21078 ft | 329 kts | 220° |
| 2026-05-08 08:43 | 47.76643 | 11.13133 | 21086 ft | 329 kts | 220° |
| 2026-05-08 08:43 | 47.74851 | 11.11021 | 21083 ft | 330 kts | 220° |
| 2026-05-08 08:43 | 47.73047 | 11.08895 | 21076 ft | 330 kts | 220° |
| 2026-05-08 08:43 | 47.71264 | 11.06795 | 21045 ft | 329 kts | 220° |
| 2026-05-08 08:44 | 47.69503 | 11.04729 | 21049 ft | 316 kts | 220° |
| 2026-05-08 08:44 | 47.67802 | 11.02735 | 20819 ft | 313 kts | 220° |
| 2026-05-08 08:44 | 47.66099 | 11.00737 | 20517 ft | 312 kts | 220° |
| 2026-05-08 08:44 | 47.64385 | 10.98726 | 20218 ft | 311 kts | 220° |
| 2026-05-08 08:45 | 47.62707 | 10.96759 | 19920 ft | 310 kts | 220° |
| 2026-05-08 08:45 | 47.61009 | 10.94768 | 19600 ft | 310 kts | 220° |
| 2026-05-08 08:45 | 47.59341 | 10.92815 | 19302 ft | 309 kts | 220° |
| 2026-05-08 08:45 | 47.57645 | 10.90832 | 18992 ft | 309 kts | 220° |
| 2026-05-08 08:46 | 47.55946 | 10.88844 | 18699 ft | 309 kts | 220° |
| 2026-05-08 08:46 | 47.54272 | 10.86888 | 18385 ft | 309 kts | 219° |
| 2026-05-08 08:46 | 47.52578 | 10.84909 | 18080 ft | 308 kts | 219° |
| 2026-05-08 08:46 | 47.50911 | 10.82965 | 17789 ft | 307 kts | 219° |
| 2026-05-08 08:47 | 47.49232 | 10.81008 | 17473 ft | 307 kts | 219° |
| 2026-05-08 08:47 | 47.47561 | 10.79062 | 17189 ft | 306 kts | 219° |
| 2026-05-08 08:47 | 47.45885 | 10.77112 | 16901 ft | 306 kts | 219° |
| 2026-05-08 08:47 | 47.44229 | 10.75184 | 16558 ft | 306 kts | 219° |
| 2026-05-08 08:48 | 47.42572 | 10.73260 | 16242 ft | 305 kts | 219° |
| 2026-05-08 08:48 | 47.40911 | 10.71331 | 15967 ft | 304 kts | 219° |
| 2026-05-08 08:48 | 47.39230 | 10.69402 | 15660 ft | 304 kts | 218° |
| 2026-05-08 08:48 | 47.37393 | 10.67935 | 15520 ft | 299 kts | 200° |
| 2026-05-08 08:49 | 47.35321 | 10.67520 | 15068 ft | 306 kts | 178° |
| 2026-05-08 08:49 | 47.33231 | 10.68077 | 14312 ft | 315 kts | 168° |
| 2026-05-08 08:49 | 47.31079 | 10.68836 | 13178 ft | 322 kts | 166° |
| 2026-05-08 08:49 | 47.28929 | 10.69543 | 12359 ft | 317 kts | 168° |
| 2026-05-08 08:50 | 47.26756 | 10.69984 | 11155 ft | 325 kts | 173° |
| 2026-05-08 08:50 | 47.24520 | 10.70547 | 9633 ft | 338 kts | 165° |
| 2026-05-08 08:50 | 47.22779 | 10.72445 | 9450 ft | 303 kts | 126° |
| 2026-05-08 08:50 | 47.22100 | 10.75259 | 8933 ft | 289 kts | 97° |
| 2026-05-08 08:51 | 47.22019 | 10.78161 | 8182 ft | 288 kts | 85° |
| 2026-05-08 08:51 | 47.22509 | 10.80928 | 7933 ft | 267 kts | 69° |
| 2026-05-08 08:51 | 47.23276 | 10.83278 | 7885 ft | 244 kts | 62° |
| 2026-05-08 08:51 | 47.24047 | 10.85391 | 7705 ft | 228 kts | 63° |
| 2026-05-08 08:52 | 47.24768 | 10.87452 | 7661 ft | 225 kts | 62° |
| 2026-05-08 08:52 | 47.25485 | 10.89542 | 7417 ft | 236 kts | 65° |
| 2026-05-08 08:52 | 47.26165 | 10.91753 | 7404 ft | 232 kts | 67° |
| 2026-05-08 08:52 | 47.26750 | 10.93953 | 7350 ft | 234 kts | 70° |
| 2026-05-08 08:53 | 47.27266 | 10.96233 | 7244 ft | 236 kts | 73° |
| 2026-05-08 08:53 | 47.27703 | 10.98530 | 7164 ft | 233 kts | 73° |
| 2026-05-08 08:53 | 47.28194 | 11.00788 | 6843 ft | 232 kts | 71° |
| 2026-05-08 08:53 | 47.28759 | 11.03054 | 6323 ft | 233 kts | 69° |
| 2026-05-08 08:54 | 47.29282 | 11.05215 | 6097 ft | 220 kts | 73° |
| 2026-05-08 08:54 | 47.29496 | 11.07387 | 5791 ft | 211 kts | 90° |
| 2026-05-08 08:54 | 47.29271 | 11.09441 | 5664 ft | 195 kts | 103° |
| 2026-05-08 08:54 | 47.28957 | 11.11360 | 5346 ft | 190 kts | 103° |
| 2026-05-08 08:55 | 47.28590 | 11.13151 | 5160 ft | 181 kts | 107° |
| 2026-05-08 08:55 | 47.28191 | 11.14909 | 5066 ft | 183 kts | 109° |
| 2026-05-08 08:55 | 47.27725 | 11.16703 | 4949 ft | 188 kts | 112° |
| 2026-05-08 08:55 | 47.27226 | 11.18498 | 4843 ft | 187 kts | 111° |
| 2026-05-08 08:56 | 47.26762 | 11.20250 | 4509 ft | 185 kts | 109° |
| 2026-05-08 08:56 | 47.26345 | 11.21976 | 4285 ft | 173 kts | 107° |
| 2026-05-08 08:56 | 47.25985 | 11.23581 | 4102 ft | 152 kts | 107° |
| 2026-05-08 08:56 | 47.25722 | 11.25023 | 3771 ft | 144 kts | 101° |
| 2026-05-08 08:57 | 47.25579 | 11.26420 | 3410 ft | 136 kts | 94° |
| 2026-05-08 08:57 | 47.25536 | 11.27784 | 3005 ft | 138 kts | 91° |
| 2026-05-08 08:57 | 47.25539 | 11.29189 | 2783 ft | 136 kts | 86° |
| 2026-05-08 08:57 | 47.25635 | 11.30576 | 2412 ft | 134 kts | 84° |
| 2026-05-08 08:58 | 47.25761 | 11.31925 | 2163 ft | 134 kts | 82° |
| 2026-05-08 08:58 | 47.25906 | 11.33255 | 1999 ft | 129 kts | 82° |
| 2026-05-08 08:58 | 47.26018 | 11.34341 | 1913 ft | 72 kts | 81° |
| 2026-05-08 08:58 | 47.26073 | 11.34893 | 1910 ft | 48 kts | 81° |
| 2026-05-08 08:59 | 47.26104 | 11.35194 | 1906 ft | 13 kts | 97° |
| 2026-05-08 08:59 | 47.26051 | 11.35264 | 1906 ft | 9 kts | 171° |
| 2026-05-08 08:59 | 47.25987 | 11.35275 | 1906 ft | 8 kts | 172° |
| 2026-05-08 08:59 | 47.25933 | 11.35285 | 1906 ft | 7 kts | 175° |
| 2026-05-08 09:00 | 47.25897 | 11.35246 | 1906 ft | 7 kts | 261° |
| 2026-05-08 09:00 | 47.25890 | 11.35172 | 1906 ft | 7 kts | 261° |
| 2026-05-08 09:00 | 47.25874 | 11.35112 | 1907 ft | 5 kts | 207° |
| 2026-05-08 09:00 | 47.25828 | 11.35119 | 1906 ft | 0 kts | 171° |